Time;durP1;ratioP1;P1;durP2;ratioP2;P2;SDS_P1;SDS_P2;PMS_P1;PMS_P2;Temp;Humidity;BMP_temperature;BMP_pressure;BME280_temperature;BME280_humidity;BME280_pressure;Samples;Min_cycle;Max_cycle;Signal;HPM_P1;HPM_P2
2022/07/07 00:01:44;;;;;;;2.15;1.40;;;23.30;51.10;;;;;;5079422;28;20107;-84
2022/07/07 00:04:10;;;;;;;1.92;1.50;;;23.20;51.10;;;;;;5088428;28;20032;-83
2022/07/07 00:06:36;;;;;;;1.63;1.45;;;23.20;51.20;;;;;;5114027;28;20043;-83
2022/07/07 00:09:04;;;;;;;1.33;1.23;;;23.20;51.20;;;;;;5080510;28;20063;-82
2022/07/07 00:11:30;;;;;;;1.73;1.40;;;23.20;51.20;;;;;;5095592;28;20031;-83
2022/07/07 00:13:56;;;;;;;2.00;1.50;;;23.20;51.20;;;;;;5095694;28;20119;-84
2022/07/07 00:16:22;;;;;;;1.95;1.48;;;23.20;51.30;;;;;;5096558;28;20034;-83
2022/07/07 00:18:48;;;;;;;1.42;1.30;;;23.10;51.30;;;;;;5114568;28;20081;-84
2022/07/07 00:21:14;;;;;;;1.48;1.23;;;23.20;52.00;;;;;;5088163;28;20035;-83
2022/07/07 00:23:40;;;;;;;1.98;1.50;;;23.10;51.40;;;;;;5089310;28;20027;-84
2022/07/07 00:26:06;;;;;;;1.75;1.45;;;23.10;51.40;;;;;;5063414;28;20437;-83
2022/07/07 00:28:32;;;;;;;1.50;1.25;;;23.10;51.40;;;;;;5114681;28;20035;-84
2022/07/07 00:30:58;;;;;;;1.90;1.50;;;23.10;51.50;;;;;;5088706;28;20428;-84
2022/07/07 00:33:23;;;;;;;1.58;1.40;;;23.00;51.50;;;;;;5085017;28;20460;-83
2022/07/07 00:35:49;;;;;;;2.05;1.35;;;23.00;51.50;;;;;;5085172;28;20030;-84
2022/07/07 00:38:15;;;;;;;2.60;1.50;;;23.00;51.50;;;;;;5093650;28;20031;-83
2022/07/07 00:40:41;;;;;;;2.17;1.50;;;23.00;51.50;;;;;;5095830;28;20504;-84
2022/07/07 00:43:07;;;;;;;1.98;1.77;;;23.00;51.50;;;;;;5088930;28;20111;-83
2022/07/07 00:45:33;;;;;;;2.15;1.60;;;23.00;51.60;;;;;;5094667;28;20053;-84
2022/07/07 00:47:59;;;;;;;1.60;1.50;;;23.00;51.70;;;;;;5113235;28;20123;-83
2022/07/07 00:50:25;;;;;;;1.80;1.50;;;22.90;51.60;;;;;;5109372;28;20032;-83
2022/07/07 00:52:51;;;;;;;2.22;1.60;;;23.00;51.80;;;;;;5095420;28;20031;-84
2022/07/07 00:55:17;;;;;;;1.77;1.45;;;22.90;51.80;;;;;;5087401;28;20055;-84
2022/07/07 00:57:43;;;;;;;2.08;1.60;;;22.90;51.80;;;;;;5085072;28;20051;-83
2022/07/07 01:00:13;;;;;;;1.50;1.33;;;22.90;51.80;;;;;;5087208;28;20053;-83
2022/07/07 01:02:41;;;;;;;2.38;1.80;;;22.90;51.80;;;;;;5086234;28;20032;-83
2022/07/07 01:05:08;;;;;;;2.17;1.50;;;22.90;51.80;;;;;;5080757;28;20016;-84
2022/07/07 01:07:35;;;;;;;2.22;1.67;;;22.90;51.90;;;;;;5088066;28;20028;-83
2022/07/07 01:10:02;;;;;;;2.25;1.70;;;22.90;51.80;;;;;;5083553;28;20039;-84
2022/07/07 01:12:39;;;;;;;1.70;1.40;;;22.80;51.80;;;;;;5103998;28;20166;-84
2022/07/07 01:15:08;;;;;;;1.90;1.60;;;22.80;51.90;;;;;;5086355;28;20141;-84
2022/07/07 01:17:34;;;;;;;1.50;1.40;;;22.80;51.80;;;;;;5102641;28;20020;-84
2022/07/07 01:20:01;;;;;;;2.25;1.65;;;22.80;51.80;;;;;;5093539;28;20072;-84
2022/07/07 01:22:31;;;;;;;2.35;1.58;;;22.80;51.80;;;;;;5071481;28;20032;-83
2022/07/07 01:24:57;;;;;;;2.30;1.63;;;22.80;51.80;;;;;;5098163;28;20449;-84
2022/07/07 01:27:23;;;;;;;2.33;1.63;;;22.80;51.80;;;;;;5091163;28;20111;-84
2022/07/07 01:29:51;;;;;;;1.98;1.58;;;22.80;51.80;;;;;;5070656;28;20166;-84
2022/07/07 01:32:17;;;;;;;3.40;1.77;;;22.80;51.90;;;;;;5103417;28;20016;-84
2022/07/07 01:34:45;;;;;;;2.55;1.77;;;22.80;51.80;;;;;;5111285;28;20107;-83
2022/07/07 01:37:11;;;;;;;3.03;1.77;;;22.70;51.80;;;;;;5084509;28;20105;-83
2022/07/07 01:39:38;;;;;;;2.08;1.60;;;22.80;51.90;;;;;;5086424;28;20051;-83
2022/07/07 01:42:06;;;;;;;1.98;1.70;;;22.70;51.80;;;;;;5095103;28;20030;-84
2022/07/07 01:44:33;;;;;;;2.80;1.75;;;22.70;51.80;;;;;;5106769;28;20098;-83
2022/07/07 01:46:58;;;;;;;3.08;1.90;;;22.70;51.90;;;;;;5083492;28;20110;-83
2022/07/07 01:49:25;;;;;;;1.88;1.63;;;22.70;51.90;;;;;;5073194;28;20430;-83
2022/07/07 01:51:51;;;;;;;2.13;1.58;;;22.70;51.90;;;;;;5094439;28;20027;-83
2022/07/07 01:54:17;;;;;;;2.25;1.70;;;22.70;51.90;;;;;;5113065;28;20032;-83
2022/07/07 01:56:43;;;;;;;1.70;1.52;;;22.70;52.00;;;;;;5094675;28;20035;-83
2022/07/07 01:59:08;;;;;;;2.45;1.92;;;22.60;51.90;;;;;;5109160;28;20032;-83
2022/07/07 02:01:35;;;;;;;2.65;1.70;;;22.60;51.90;;;;;;5110421;28;20122;-83
2022/07/07 02:04:01;;;;;;;1.85;1.52;;;22.60;51.90;;;;;;5099086;28;20039;-84
2022/07/07 02:06:26;;;;;;;2.75;1.60;;;22.60;51.90;;;;;;5072961;28;20028;-84
2022/07/07 02:08:52;;;;;;;1.92;1.52;;;22.60;51.90;;;;;;5091331;28;20044;-84
2022/07/07 02:11:18;;;;;;;2.55;1.50;;;22.60;51.90;;;;;;5074903;28;20477;-83
2022/07/07 02:13:48;;;;;;;1.70;1.58;;;22.60;51.90;;;;;;5074477;28;20038;-83
2022/07/07 02:16:15;;;;;;;2.30;1.67;;;22.60;52.00;;;;;;5112789;28;20085;-84
2022/07/07 02:18:43;;;;;;;2.08;1.48;;;22.50;51.90;;;;;;5112336;28;20027;-83
2022/07/07 02:21:10;;;;;;;1.92;1.50;;;22.60;52.00;;;;;;5084388;28;20475;-83
2022/07/07 02:23:38;;;;;;;2.40;1.67;;;22.60;52.10;;;;;;5077852;28;20435;-83
2022/07/07 02:26:04;;;;;;;2.30;1.60;;;22.60;52.10;;;;;;5103104;28;20185;-82
2022/07/07 02:28:30;;;;;;;2.53;1.55;;;22.60;52.10;;;;;;5076597;28;20097;-84
2022/07/07 02:30:57;;;;;;;1.50;1.40;;;22.50;52.20;;;;;;5091937;28;20020;-83
2022/07/07 02:33:23;;;;;;;1.70;1.40;;;22.50;52.20;;;;;;5089305;28;20027;-82
2022/07/07 02:35:50;;;;;;;1.95;1.60;;;22.50;52.10;;;;;;5075009;28;20543;-84
2022/07/07 02:38:16;;;;;;;2.60;1.50;;;22.50;52.10;;;;;;5066894;28;20491;-85
2022/07/07 02:40:42;;;;;;;2.40;1.50;;;22.50;52.20;;;;;;5083589;28;20089;-82
2022/07/07 02:43:12;;;;;;;2.10;1.30;;;22.50;52.30;;;;;;5084930;28;20488;-84
2022/07/07 02:45:46;;;;;;;1.55;1.38;;;22.50;52.40;;;;;;5091964;28;20038;-85
2022/07/07 02:48:15;;;;;;;1.88;1.30;;;22.50;52.50;;;;;;5089534;28;20027;-83
2022/07/07 02:50:42;;;;;;;1.45;1.35;;;22.50;52.60;;;;;;5060461;28;20031;-82
2022/07/07 02:53:10;;;;;;;1.30;1.10;;;22.50;52.60;;;;;;5109211;28;20038;-82
2022/07/07 02:55:36;;;;;;;1.23;1.10;;;22.50;52.70;;;;;;5093008;28;20474;-83
2022/07/07 02:58:03;;;;;;;1.48;1.05;;;22.40;52.70;;;;;;5104302;28;20457;-82
2022/07/07 03:00:29;;;;;;;1.58;1.27;;;22.50;52.80;;;;;;5090515;28;20039;-83
2022/07/07 03:02:55;;;;;;;1.45;1.23;;;22.40;52.80;;;;;;5092560;28;20358;-83
2022/07/07 03:05:22;;;;;;;1.27;1.10;;;22.40;52.80;;;;;;5109291;28;20035;-82
2022/07/07 03:07:48;;;;;;;1.20;1.10;;;22.40;52.90;;;;;;5110234;28;20023;-82
2022/07/07 03:10:14;;;;;;;1.52;1.08;;;22.40;52.90;;;;;;5093818;28;20059;-82
2022/07/07 03:12:40;;;;;;;1.20;1.00;;;22.40;53.00;;;;;;5094731;28;20047;-81
2022/07/07 03:15:06;;;;;;;1.10;1.00;;;22.40;53.00;;;;;;5071793;28;20035;-83
2022/07/07 03:17:32;;;;;;;1.38;1.00;;;22.40;53.10;;;;;;5079770;28;20059;-81
2022/07/07 03:19:58;;;;;;;1.02;0.93;;;22.40;53.10;;;;;;5081087;28;20060;-82
2022/07/07 03:22:23;;;;;;;1.15;1.00;;;22.30;53.00;;;;;;5077913;28;20032;-82
2022/07/07 03:24:49;;;;;;;1.40;0.95;;;22.30;53.10;;;;;;5094535;28;20441;-81
2022/07/07 03:27:15;;;;;;;0.65;0.65;;;22.30;53.10;;;;;;5097377;28;20042;-81
2022/07/07 03:29:41;;;;;;;1.25;1.00;;;22.30;53.10;;;;;;5074939;28;20024;-82
2022/07/07 03:32:07;;;;;;;1.33;0.90;;;22.30;53.20;;;;;;5081344;28;20020;-81
2022/07/07 03:34:33;;;;;;;0.90;0.90;;;22.30;53.20;;;;;;5095297;28;20024;-81
2022/07/07 03:36:58;;;;;;;0.93;0.93;;;22.20;53.20;;;;;;5075683;28;20491;-82
2022/07/07 03:39:24;;;;;;;0.93;0.85;;;22.20;53.20;;;;;;5026611;28;20044;-81
2022/07/07 03:41:50;;;;;;;1.05;0.95;;;22.20;53.20;;;;;;5094048;28;20483;-81
2022/07/07 03:44:16;;;;;;;1.27;0.90;;;22.20;53.30;;;;;;5077474;28;20029;-82
2022/07/07 03:46:41;;;;;;;1.02;0.88;;;22.20;53.30;;;;;;5113768;28;20031;-81
2022/07/07 03:49:07;;;;;;;0.80;0.80;;;22.20;53.40;;;;;;5105114;28;20068;-81
2022/07/07 03:51:33;;;;;;;1.52;0.90;;;22.10;53.30;;;;;;5080383;28;20023;-82
2022/07/07 03:53:59;;;;;;;1.20;0.90;;;22.10;53.40;;;;;;5094545;28;20028;-81
2022/07/07 03:56:25;;;;;;;0.80;0.80;;;22.10;53.50;;;;;;5114837;28;20028;-82
2022/07/07 03:58:51;;;;;;;0.82;0.82;;;22.10;53.50;;;;;;5094271;28;20124;-82
2022/07/07 04:01:16;;;;;;;1.23;0.80;;;22.10;54.10;;;;;;5079037;28;20080;-82
2022/07/07 04:03:42;;;;;;;1.35;0.90;;;22.00;53.50;;;;;;5078591;28;20043;-81
2022/07/07 04:06:08;;;;;;;1.85;1.08;;;22.00;53.50;;;;;;5110899;28;20039;-81
2022/07/07 04:08:33;;;;;;;1.67;0.73;;;22.00;53.60;;;;;;5094713;28;20071;-81
2022/07/07 04:10:59;;;;;;;0.77;0.68;;;22.00;53.60;;;;;;5094311;28;20051;-81
2022/07/07 04:13:25;;;;;;;0.90;0.90;;;22.00;53.60;;;;;;5079040;28;20027;-81
2022/07/07 04:15:51;;;;;;;1.00;0.90;;;22.00;53.70;;;;;;5095900;28;20034;-81
2022/07/07 04:18:17;;;;;;;1.33;0.95;;;21.90;53.70;;;;;;5092422;28;20093;-81
2022/07/07 04:20:43;;;;;;;1.30;0.93;;;21.90;53.70;;;;;;5087112;28;20468;-81
2022/07/07 04:23:08;;;;;;;0.80;0.80;;;21.90;53.80;;;;;;5086343;28;20424;-81
2022/07/07 04:25:34;;;;;;;0.68;0.68;;;21.90;53.90;;;;;;5091459;28;20023;-81
2022/07/07 04:28:00;;;;;;;1.20;0.85;;;21.90;53.90;;;;;;5078644;28;20467;-82
2022/07/07 04:30:26;;;;;;;1.17;0.77;;;21.90;54.00;;;;;;5069569;28;20126;-81
2022/07/07 04:32:52;;;;;;;0.85;0.85;;;21.90;54.00;;;;;;5107013;28;20028;-81
2022/07/07 04:35:17;;;;;;;1.45;1.08;;;21.90;54.00;;;;;;5070810;28;20439;-81
2022/07/07 04:37:43;;;;;;;0.95;0.85;;;21.90;54.10;;;;;;5093676;28;20485;-81
2022/07/07 04:40:09;;;;;;;0.90;0.90;;;21.80;54.10;;;;;;5077348;28;20452;-81
2022/07/07 04:42:35;;;;;;;1.38;0.77;;;21.80;54.10;;;;;;5076537;28;20039;-81
2022/07/07 04:45:01;;;;;;;1.08;0.98;;;21.80;54.20;;;;;;5086484;28;20512;-80
2022/07/07 04:47:26;;;;;;;1.45;1.00;;;21.80;54.20;;;;;;5087659;28;20042;-83
2022/07/07 04:49:53;;;;;;;1.48;0.98;;;21.80;54.30;;;;;;5076228;28;20525;-82
2022/07/07 04:52:18;;;;;;;1.10;1.00;;;21.80;54.30;;;;;;5107909;28;20032;-83
2022/07/07 04:54:44;;;;;;;1.30;0.70;;;21.70;54.30;;;;;;5060436;28;20039;-83
2022/07/07 04:57:10;;;;;;;0.88;0.82;;;21.80;54.50;;;;;;5082330;28;20040;-82
2022/07/07 04:59:36;;;;;;;1.02;0.77;;;21.80;54.50;;;;;;5101631;28;20036;-83
2022/07/07 05:02:02;;;;;;;0.80;0.80;;;21.70;54.50;;;;;;5071778;28;20042;-82
2022/07/07 05:04:28;;;;;;;0.70;0.70;;;21.70;54.50;;;;;;5091040;28;20460;-83
2022/07/07 05:06:54;;;;;;;1.10;0.70;;;21.70;54.60;;;;;;5097558;28;20034;-81
2022/07/07 05:09:20;;;;;;;0.65;0.63;;;21.70;54.70;;;;;;5106187;28;20032;-80
2022/07/07 05:11:46;;;;;;;0.70;0.70;;;21.70;54.70;;;;;;5090627;28;20051;-82
2022/07/07 05:14:11;;;;;;;0.63;0.63;;;21.70;54.80;;;;;;5098264;28;20066;-82
2022/07/07 05:16:37;;;;;;;1.60;0.90;;;21.70;54.80;;;;;;5077846;28;20028;-82
2022/07/07 05:19:03;;;;;;;0.70;0.70;;;21.70;54.90;;;;;;5083049;28;20093;-81
2022/07/07 05:21:29;;;;;;;0.75;0.75;;;21.60;54.90;;;;;;5116364;28;20027;-83
2022/07/07 05:23:55;;;;;;;1.08;0.90;;;21.60;55.00;;;;;;5091762;28;20051;-81
2022/07/07 05:26:21;;;;;;;0.77;0.70;;;21.70;55.10;;;;;;5101815;28;20032;-81
2022/07/07 05:28:46;;;;;;;1.05;0.90;;;21.60;55.10;;;;;;5101905;28;20057;-80
2022/07/07 05:31:16;;;;;;;0.70;0.70;;;21.60;55.10;;;;;;5070704;28;20169;-82
2022/07/07 05:33:42;;;;;;;1.52;0.88;;;21.70;55.30;;;;;;5093595;28;20467;-81
2022/07/07 05:36:08;;;;;;;0.70;0.68;;;21.60;55.30;;;;;;5086501;28;20152;-82
2022/07/07 05:38:35;;;;;;;1.10;0.90;;;21.60;55.30;;;;;;5094332;28;20043;-83
2022/07/07 05:41:02;;;;;;;1.50;0.80;;;21.60;55.40;;;;;;5094648;28;20134;-79
2022/07/07 05:43:28;;;;;;;1.83;1.08;;;21.60;55.40;;;;;;5111406;28;20027;-81
2022/07/07 05:45:54;;;;;;;1.45;0.90;;;21.60;55.40;;;;;;5094029;28;20039;-82
2022/07/07 05:48:20;;;;;;;1.52;0.77;;;21.60;55.40;;;;;;5110133;28;20016;-80
2022/07/07 05:50:46;;;;;;;1.48;0.73;;;21.60;55.50;;;;;;5091740;28;20031;-82
2022/07/07 05:53:12;;;;;;;1.83;0.90;;;21.60;55.50;;;;;;5095239;28;20038;-82
2022/07/07 05:55:38;;;;;;;1.95;1.00;;;21.60;55.60;;;;;;5094237;28;20386;-82
2022/07/07 05:58:04;;;;;;;1.02;0.70;;;21.60;55.60;;;;;;5057760;28;20024;-81
2022/07/07 06:00:30;;;;;;;1.67;0.82;;;21.50;55.60;;;;;;5074277;28;20047;-82
2022/07/07 06:02:55;;;;;;;1.38;0.80;;;21.50;55.60;;;;;;5057551;28;20032;-82
2022/07/07 06:05:22;;;;;;;0.60;0.60;;;21.60;55.70;;;;;;5084112;28;20031;-82
2022/07/07 06:07:48;;;;;;;1.23;0.90;;;21.60;55.80;;;;;;5093999;28;20028;-82
2022/07/07 06:10:14;;;;;;;1.95;0.90;;;21.50;55.80;;;;;;5091518;28;20067;-81
2022/07/07 06:12:41;;;;;;;1.40;0.82;;;21.50;55.80;;;;;;5092325;28;20051;-82
2022/07/07 06:15:07;;;;;;;2.05;0.90;;;21.60;55.90;;;;;;5091139;28;20032;-82
2022/07/07 06:17:33;;;;;;;2.90;1.13;;;21.60;56.00;;;;;;5091620;28;20055;-82
2022/07/07 06:19:59;;;;;;;2.53;1.00;;;21.50;56.00;;;;;;5101440;28;20031;-81
2022/07/07 06:22:28;;;;;;;0.55;0.52;;;21.60;56.10;;;;;;5112984;28;20042;-80
2022/07/07 06:24:54;;;;;;;1.55;0.80;;;21.50;56.00;;;;;;5111220;28;20031;-80
2022/07/07 06:27:20;;;;;;;1.70;0.95;;;21.50;56.00;;;;;;5092543;28;20054;-80
2022/07/07 06:29:47;;;;;;;1.02;0.80;;;21.50;56.10;;;;;;5110764;28;20073;-80
2022/07/07 06:32:16;;;;;;;0.98;0.75;;;21.50;56.10;;;;;;5109451;28;20598;-79
2022/07/07 06:34:42;;;;;;;2.53;1.10;;;21.50;56.10;;;;;;5082366;28;20082;-79
2022/07/07 06:37:08;;;;;;;1.85;0.90;;;21.50;56.10;;;;;;5074272;28;20092;-79
2022/07/07 06:39:34;;;;;;;1.27;0.80;;;21.50;56.10;;;;;;5108230;28;20036;-79
2022/07/07 06:42:01;;;;;;;0.88;0.60;;;21.50;56.10;;;;;;5074331;28;20500;-80
2022/07/07 06:44:32;;;;;;;0.95;0.80;;;21.50;56.20;;;;;;5093720;28;20024;-79
2022/07/07 06:46:59;;;;;;;1.55;0.85;;;21.50;56.10;;;;;;5079257;28;20186;-79
2022/07/07 06:49:25;;;;;;;1.50;0.75;;;21.50;56.10;;;;;;5061413;28;20480;-78
2022/07/07 06:51:51;;;;;;;1.42;0.85;;;21.50;56.10;;;;;;5077543;28;20085;-79
2022/07/07 06:54:17;;;;;;;2.08;0.80;;;21.50;56.20;;;;;;5078509;28;20025;-81
2022/07/07 06:56:42;;;;;;;1.05;0.70;;;21.50;56.20;;;;;;5095017;28;20043;-79
2022/07/07 06:59:08;;;;;;;2.33;1.17;;;21.50;56.20;;;;;;5077376;28;20256;-79
2022/07/07 07:01:34;;;;;;;0.98;0.70;;;21.50;56.20;;;;;;5097437;28;20069;-80
2022/07/07 07:04:00;;;;;;;1.67;0.93;;;21.50;56.20;;;;;;5114662;28;20028;-79
2022/07/07 07:06:28;;;;;;;2.17;1.10;;;21.50;56.20;;;;;;5074282;28;20028;-80
2022/07/07 07:08:54;;;;;;;2.25;1.20;;;21.50;56.30;;;;;;5057528;28;20062;-80
2022/07/07 07:11:20;;;;;;;2.00;0.80;;;21.50;56.30;;;;;;5081314;28;20031;-80
2022/07/07 07:13:49;;;;;;;1.52;0.90;;;21.50;56.40;;;;;;5098555;28;20393;-79
2022/07/07 07:16:16;;;;;;;1.75;0.90;;;21.50;56.40;;;;;;5097156;28;20054;-79
2022/07/07 07:18:42;;;;;;;2.17;0.82;;;21.50;56.50;;;;;;5077090;28;20044;-79
2022/07/07 07:21:08;;;;;;;1.30;0.75;;;21.50;56.50;;;;;;5099262;28;20028;-78
2022/07/07 07:23:34;;;;;;;2.40;0.90;;;21.50;56.50;;;;;;5077450;28;20451;-79
2022/07/07 07:25:59;;;;;;;2.17;1.05;;;21.50;56.60;;;;;;5095214;28;20039;-79
2022/07/07 07:28:25;;;;;;;1.52;0.70;;;21.50;56.60;;;;;;5073238;28;20558;-80
2022/07/07 07:30:51;;;;;;;1.13;0.80;;;21.50;56.70;;;;;;5083866;28;20038;-80
2022/07/07 07:33:17;;;;;;;2.15;0.80;;;21.50;56.60;;;;;;5098576;28;20028;-81
2022/07/07 07:35:42;;;;;;;0.88;0.80;;;21.50;56.60;;;;;;5074747;28;20024;-79
2022/07/07 07:38:08;;;;;;;0.80;0.65;;;21.50;56.60;;;;;;5114512;28;20077;-77
2022/07/07 07:40:34;;;;;;;0.98;0.80;;;21.50;56.60;;;;;;5115173;28;20138;-79
2022/07/07 07:43:00;;;;;;;1.50;0.82;;;21.50;56.70;;;;;;5114213;28;20032;-79
2022/07/07 07:45:26;;;;;;;1.20;0.77;;;21.60;56.70;;;;;;5101414;28;20038;-82
2022/07/07 07:47:51;;;;;;;1.23;0.70;;;21.60;56.70;;;;;;5114343;28;20023;-79
2022/07/07 07:50:20;;;;;;;3.20;0.98;;;21.60;56.70;;;;;;5105320;28;20089;-79
2022/07/07 07:52:47;;;;;;;1.30;0.82;;;21.60;56.70;;;;;;5060338;28;20024;-80
2022/07/07 07:55:15;;;;;;;0.90;0.70;;;21.60;56.60;;;;;;5093370;28;20020;-83
2022/07/07 07:57:42;;;;;;;1.05;0.80;;;21.60;56.70;;;;;;5105441;28;20087;-84
2022/07/07 08:00:09;;;;;;;0.95;0.80;;;21.60;56.60;;;;;;5097862;28;20131;-84
2022/07/07 08:02:39;;;;;;;1.10;0.70;;;21.60;56.70;;;;;;5092729;28;20031;-84
2022/07/07 08:05:06;;;;;;;0.60;0.60;;;21.70;56.70;;;;;;5060218;28;20476;-84
2022/07/07 08:07:32;;;;;;;1.00;0.77;;;21.70;56.70;;;;;;5077337;28;20035;-84
2022/07/07 08:09:59;;;;;;;1.33;0.95;;;21.70;56.60;;;;;;5093872;28;20039;-83
2022/07/07 08:12:25;;;;;;;2.05;0.70;;;21.70;56.60;;;;;;5094805;28;20441;-81
2022/07/07 08:14:51;;;;;;;1.40;0.80;;;21.70;56.60;;;;;;5094980;28;20114;-84
2022/07/07 08:17:17;;;;;;;0.60;0.60;;;21.70;56.60;;;;;;5060256;28;20021;-83
2022/07/07 08:19:43;;;;;;;0.82;0.68;;;21.70;56.60;;;;;;5077300;28;20032;-83
2022/07/07 08:22:10;;;;;;;1.15;0.70;;;21.70;56.60;;;;;;5077020;28;20040;-84
2022/07/07 08:24:36;;;;;;;2.65;1.05;;;21.70;56.60;;;;;;5077303;28;20056;-83
2022/07/07 08:27:03;;;;;;;1.92;0.98;;;21.80;56.70;;;;;;5076452;28;20032;-81
2022/07/07 08:29:29;;;;;;;0.63;0.63;;;21.80;56.70;;;;;;5043717;28;20046;-83
2022/07/07 08:31:55;;;;;;;1.55;0.90;;;21.70;56.70;;;;;;5093537;28;20115;-82
2022/07/07 08:34:20;;;;;;;1.50;0.80;;;21.80;56.80;;;;;;5076437;28;20032;-82
2022/07/07 08:36:46;;;;;;;2.35;1.00;;;21.80;56.90;;;;;;5093286;28;20028;-81
2022/07/07 08:39:13;;;;;;;0.85;0.70;;;21.80;56.90;;;;;;5075778;28;20035;-82
2022/07/07 08:41:40;;;;;;;1.30;0.90;;;21.80;56.90;;;;;;5076002;28;20112;-80
2022/07/07 08:44:06;;;;;;;1.27;0.90;;;21.80;56.90;;;;;;5094844;28;20068;-91
2022/07/07 08:46:32;;;;;;;2.05;1.00;;;21.80;57.00;;;;;;5059916;28;20032;-82
2022/07/07 08:48:58;;;;;;;1.33;0.85;;;21.80;57.00;;;;;;5096628;28;20044;-84
2022/07/07 08:51:25;;;;;;;1.35;0.77;;;21.90;57.10;;;;;;5106865;28;20110;-82
2022/07/07 08:53:51;;;;;;;1.73;0.90;;;21.90;57.10;;;;;;5076353;28;20091;-84
2022/07/07 08:56:18;;;;;;;1.95;0.95;;;21.90;57.10;;;;;;5103661;28;20031;-82
2022/07/07 08:58:45;;;;;;;1.40;0.85;;;21.90;57.20;;;;;;5094233;28;20036;-82
2022/07/07 09:01:12;;;;;;;1.25;0.90;;;21.90;57.20;;;;;;5075766;28;20047;-81
2022/07/07 09:03:37;;;;;;;1.42;0.80;;;21.90;57.20;;;;;;5075305;28;20186;-84
2022/07/07 09:06:04;;;;;;;0.90;0.73;;;21.90;57.20;;;;;;5091029;28;20106;-84
2022/07/07 09:08:31;;;;;;;1.00;0.68;;;21.90;57.20;;;;;;5112302;28;20038;-84
2022/07/07 09:10:57;;;;;;;1.33;0.80;;;21.90;57.20;;;;;;5076357;28;20484;-85
2022/07/07 09:13:30;;;;;;;1.20;0.82;;;22.00;57.30;;;;;;5112154;28;20028;-81
2022/07/07 09:16:02;;;;;;;1.30;1.00;;;22.00;57.40;;;;;;5095761;28;20482;-83
2022/07/07 09:18:39;;;;;;;1.17;0.60;;;22.00;57.40;;;;;;5095900;28;20482;-83
2022/07/07 09:21:23;;;;;;;2.58;0.98;;;22.00;57.40;;;;;;5112447;28;20028;-82
2022/07/07 09:23:53;;;;;;;;;;;22.00;57.40;;;;;;5077409;28;20039;-83
2022/07/07 09:26:45;;;;;;;0.63;0.55;;;22.00;57.10;;;;;;5113648;28;19912;-83
2022/07/07 09:29:18;;;;;;;1.98;0.88;;;22.10;57.40;;;;;;5076846;28;20456;-81
2022/07/07 09:31:55;;;;;;;1.13;0.77;;;22.00;57.40;;;;;;5075177;28;20046;-82
2022/07/07 09:34:24;;;;;;;0.55;0.55;;;22.00;57.50;;;;;;5075142;28;20054;-81
2022/07/07 09:39:43;;;;;;;0.60;0.60;;;22.10;57.50;;;;;;5079334;28;20494;-84
2022/07/07 09:42:24;;;;;;;0.93;0.52;;;22.10;57.60;;;;;;5087399;28;20101;-82
2022/07/07 09:44:57;;;;;;;0.47;0.47;;;22.10;57.70;;;;;;5076942;28;20028;-80
2022/07/07 09:47:24;;;;;;;0.63;0.60;;;22.10;57.60;;;;;;5074895;28;20060;-81
2022/07/07 09:50:12;;;;;;;1.17;0.60;;;22.20;57.70;;;;;;5045314;28;20506;-82
2022/07/07 09:52:41;;;;;;;0.93;0.70;;;22.20;57.80;;;;;;5091365;28;20476;-80
2022/07/07 09:55:09;;;;;;;0.80;0.70;;;22.20;57.60;;;;;;5080490;28;20098;-83
2022/07/07 09:57:36;;;;;;;0.60;0.60;;;22.20;57.60;;;;;;5077728;28;20055;-81
2022/07/07 10:00:03;;;;;;;0.60;0.60;;;22.30;57.60;;;;;;5101729;28;20498;-81
2022/07/07 10:02:37;;;;;;;0.40;0.40;;;22.30;57.60;;;;;;5087479;28;20043;-83
2022/07/07 10:05:05;;;;;;;1.25;0.60;;;22.30;57.50;;;;;;5111852;28;20038;-88
2022/07/07 10:07:32;;;;;;;0.88;0.70;;;22.30;57.50;;;;;;5092942;28;20020;-83
2022/07/07 10:10:10;;;;;;;0.65;0.60;;;22.40;57.60;;;;;;5095023;28;20031;-82
2022/07/07 10:12:49;;;;;;;0.45;0.45;;;22.30;57.50;;;;;;5095034;28;20036;-80
2022/07/07 10:15:15;;;;;;;1.02;0.60;;;22.40;57.60;;;;;;5076051;28;20032;-81
2022/07/07 10:17:43;;;;;;;0.68;0.60;;;22.40;57.50;;;;;;5077554;28;20479;-83
2022/07/07 10:20:10;;;;;;;0.63;0.45;;;22.40;57.50;;;;;;5106123;28;20381;-80
2022/07/07 10:22:36;;;;;;;0.38;0.38;;;22.40;57.50;;;;;;5072464;28;20024;-79
2022/07/07 10:25:06;;;;;;;0.70;0.60;;;22.40;57.50;;;;;;5095336;28;20534;-81
2022/07/07 10:27:33;;;;;;;1.02;0.60;;;22.40;57.60;;;;;;5093787;28;20040;-81
2022/07/07 10:30:00;;;;;;;0.55;0.55;;;22.40;57.60;;;;;;5085417;28;20028;-82
2022/07/07 10:32:38;;;;;;;0.60;0.60;;;22.50;57.70;;;;;;5097032;28;20024;-81
2022/07/07 10:35:12;;;;;;;0.57;0.52;;;22.40;57.70;;;;;;5096670;28;20024;-81
2022/07/07 10:37:45;;;;;;;1.02;0.63;;;22.50;57.70;;;;;;5093845;28;20369;-79
2022/07/07 10:40:13;;;;;;;0.80;0.68;;;22.50;57.70;;;;;;5110150;28;20418;-80
2022/07/07 10:42:38;;;;;;;1.05;0.80;;;22.50;57.70;;;;;;5105276;28;20024;-82
2022/07/07 10:45:05;;;;;;;0.93;0.60;;;22.50;57.70;;;;;;5091549;28;20028;-79
2022/07/07 10:47:34;;;;;;;0.63;0.60;;;22.50;57.80;;;;;;5104268;28;20034;-80
2022/07/07 10:50:01;;;;;;;1.52;0.80;;;22.50;57.90;;;;;;5079880;28;20032;-80
2022/07/07 10:52:47;;;;;;;1.13;0.70;;;22.50;57.80;;;;;;5070198;28;20368;-79
2022/07/07 10:55:13;;;;;;;0.60;0.60;;;22.50;57.90;;;;;;5109752;28;20044;-81
2022/07/07 10:57:44;;;;;;;1.48;0.70;;;22.50;57.70;;;;;;5111082;28;20050;-81
2022/07/07 11:00:26;;;;;;;0.80;0.60;;;22.50;57.80;;;;;;5093294;28;20418;-81
2022/07/07 11:03:10;;;;;;;0.77;0.55;;;22.50;57.80;;;;;;5106006;28;20464;-80
2022/07/07 11:05:36;;;;;;;0.95;0.60;;;22.50;57.80;;;;;;5078132;28;20024;-82
2022/07/07 11:08:06;;;;;;;0.80;0.60;;;22.50;57.80;;;;;;5073793;28;20038;-82
2022/07/07 11:10:42;;;;;;;0.68;0.63;;;22.50;57.90;;;;;;5074390;28;20110;-85
2022/07/07 11:13:20;;;;;;;0.88;0.50;;;22.50;58.00;;;;;;5076933;28;20058;-82
2022/07/07 11:16:11;;;;;;;1.15;0.63;;;22.50;58.00;;;;;;5094512;28;20036;-84
2022/07/07 11:18:37;;;;;;;0.63;0.60;;;22.60;58.00;;;;;;5086091;28;20036;-81
2022/07/07 11:21:05;;;;;;;0.93;0.63;;;22.60;58.00;;;;;;5094005;28;20034;-82
2022/07/07 11:23:47;;;;;;;0.85;0.70;;;22.60;58.00;;;;;;5110809;28;20035;-82
2022/07/07 11:26:25;;;;;;;0.50;0.50;;;22.60;58.10;;;;;;5093661;28;20029;-80
2022/07/07 11:28:56;;;;;;;0.90;0.70;;;22.60;58.00;;;;;;5093872;28;20031;-82
2022/07/07 11:31:22;;;;;;;0.77;0.70;;;22.60;58.00;;;;;;5076840;28;20127;-82
2022/07/07 11:33:51;;;;;;;1.10;0.80;;;22.70;58.00;;;;;;5096897;28;20020;-82
2022/07/07 11:36:29;;;;;;;1.02;0.88;;;22.70;58.00;;;;;;5097164;28;20027;-83
2022/07/07 11:39:00;;;;;;;1.27;0.80;;;22.70;58.20;;;;;;5097466;28;20114;-81
2022/07/07 11:41:42;;;;;;;0.90;0.70;;;22.70;58.10;;;;;;5076545;28;20052;-80
2022/07/07 11:44:22;;;;;;;1.73;0.75;;;22.80;58.30;;;;;;5110826;28;20032;-81
2022/07/07 11:46:50;;;;;;;1.20;0.80;;;22.70;58.30;;;;;;5095543;28;20028;-79
2022/07/07 11:49:17;;;;;;;0.80;0.80;;;22.70;58.20;;;;;;5094750;28;20024;-80
2022/07/07 11:51:45;;;;;;;2.08;1.10;;;22.70;58.20;;;;;;5111022;28;20035;-81
2022/07/07 11:54:11;;;;;;;2.10;0.90;;;22.80;58.30;;;;;;5094086;28;20020;-82
2022/07/07 11:56:37;;;;;;;0.82;0.80;;;22.80;58.20;;;;;;5093897;28;20036;-81
2022/07/07 11:59:04;;;;;;;0.98;0.90;;;22.80;58.30;;;;;;5076923;28;20032;-81
2022/07/07 12:01:34;;;;;;;1.33;1.00;;;22.80;58.30;;;;;;5094539;28;20568;-82
2022/07/07 12:04:14;;;;;;;0.98;0.90;;;22.80;58.30;;;;;;5110907;28;20472;-82
2022/07/07 12:06:40;;;;;;;1.67;0.70;;;22.80;58.40;;;;;;5093540;28;20494;-82
2022/07/07 12:09:06;;;;;;;0.82;0.73;;;22.90;58.30;;;;;;5093496;28;20040;-82
2022/07/07 12:11:38;;;;;;;1.05;0.82;;;22.90;58.30;;;;;;5110430;28;20032;-84
2022/07/07 12:14:04;;;;;;;0.98;0.80;;;22.90;58.40;;;;;;5076806;28;20097;-83
2022/07/07 12:16:47;;;;;;;1.70;0.70;;;22.90;58.30;;;;;;5094681;28;20483;-82
2022/07/07 12:19:13;;;;;;;1.42;0.77;;;22.90;58.40;;;;;;5110434;28;20028;-83
2022/07/07 12:21:47;;;;;;;0.95;0.80;;;22.90;58.20;;;;;;5093994;28;20088;-83
2022/07/07 12:24:15;;;;;;;1.42;0.70;;;22.90;58.30;;;;;;5093739;28;20469;-83
2022/07/07 12:26:49;;;;;;;0.80;0.80;;;22.90;58.10;;;;;;5093579;28;20028;-82
2022/07/07 12:29:21;;;;;;;0.77;0.77;;;22.90;58.20;;;;;;5093657;28;20036;-82
2022/07/07 12:31:49;;;;;;;0.82;0.80;;;22.90;58.10;;;;;;5094323;28;20107;-82
2022/07/07 12:34:18;;;;;;;1.05;0.70;;;22.90;58.20;;;;;;5076341;28;20466;-82
2022/07/07 12:36:45;;;;;;;1.25;0.75;;;23.00;58.20;;;;;;5093242;28;20101;-81
2022/07/07 12:39:11;;;;;;;2.13;0.90;;;23.00;58.20;;;;;;5076279;28;20036;-82
2022/07/07 12:41:39;;;;;;;1.67;0.80;;;23.00;58.10;;;;;;5092790;28;20395;-82
2022/07/07 12:44:17;;;;;;;1.20;0.73;;;23.00;58.10;;;;;;5092670;28;20059;-82
2022/07/07 12:46:44;;;;;;;1.15;0.90;;;23.00;58.10;;;;;;5109752;28;20024;-83
2022/07/07 12:49:10;;;;;;;0.65;0.65;;;23.00;58.00;;;;;;5075775;28;20044;-83
2022/07/07 12:51:38;;;;;;;2.30;1.05;;;23.00;57.90;;;;;;5092459;28;20054;-83
2022/07/07 12:54:04;;;;;;;2.95;1.08;;;23.00;57.90;;;;;;5092887;28;20377;-81